Time;durP1;ratioP1;P1;durP2;ratioP2;P2;SDS_P1;SDS_P2;PMS_P1;PMS_P2;Temp;Humidity;BMP_temperature;BMP_pressure;BME280_temperature;BME280_humidity;BME280_pressure;Samples;Min_cycle;Max_cycle;Signal;HPM_P1;HPM_P2
2022/11/11 00:05:13;;;;;;;5.82;3.05;;;;;;;;;;10434630;28;20048;-82
2022/11/11 00:10:35;;;;;;;5.40;3.05;;;;;;;;;;10432636;28;20040;-82
2022/11/11 00:16:07;;;;;;;4.30;2.53;;;;;;;;;;10423863;28;20053;-82
2022/11/11 00:27:07;;;;;;;8.55;4.15;;;;;;;;;;10408282;28;20045;-83
2022/11/11 00:32:33;;;;;;;10.38;3.78;;;;;;;;;;10410034;28;20423;-82
2022/11/11 00:38:06;;;;;;;5.25;2.53;;;;;;;;;;10416319;28;20041;-81
2022/11/11 00:43:28;;;;;;;4.35;2.25;;;;;;;;;;10417051;28;20041;-82
2022/11/11 00:54:33;;;;;;;3.97;2.38;;;;;;;;;;10408944;28;20041;-82
2022/11/11 00:59:55;;;;;;;2.33;1.95;;;;;;;;;;10405236;28;20124;-82
2022/11/11 01:05:17;;;;;;;4.82;2.80;;;;;;;;;;10416760;28;20574;-82
2022/11/11 01:10:42;;;;;;;6.55;3.08;;;;;;;;;;10406104;28;20037;-82
2022/11/11 01:16:06;;;;;;;4.85;2.25;;;;;;;;;;10424350;28;20506;-82
2022/11/11 01:21:28;;;;;;;3.60;2.00;;;;;;;;;;10427129;28;20033;-82
2022/11/11 01:26:52;;;;;;;2.72;2.08;;;;;;;;;;10422629;28;20049;-84
2022/11/11 01:32:14;;;;;;;3.63;2.10;;;;;;;;;;10418211;28;20049;-84
2022/11/11 01:37:37;;;;;;;2.80;1.90;;;;;;;;;;10424063;28;20451;-83
2022/11/11 01:43:22;;;;;;;2.63;1.88;;;;;;;;;;10421909;28;20049;-82
2022/11/11 01:54:33;;;;;;;4.15;2.40;;;;;;;;;;10406552;28;20037;-82
2022/11/11 02:00:01;;;;;;;3.20;2.05;;;;;;;;;;10451595;28;20040;-83
2022/11/11 02:05:44;;;;;;;2.65;1.60;;;;;;;;;;10452028;28;20049;-82
2022/11/11 02:11:10;;;;;;;2.38;1.52;;;;;;;;;;10447014;28;20045;-84
2022/11/11 02:16:34;;;;;;;2.35;1.67;;;;;;;;;;10453876;28;20045;-82
2022/11/11 02:22:00;;;;;;;2.38;1.63;;;;;;;;;;10453537;28;20422;-85
2022/11/11 02:27:26;;;;;;;1.65;1.50;;;;;;;;;;10439673;28;20416;-83
2022/11/11 02:32:50;;;;;;;4.15;1.80;;;;;;;;;;10438941;28;20040;-82
2022/11/11 02:38:13;;;;;;;3.30;1.83;;;;;;;;;;10445056;28;20036;-83
2022/11/11 02:43:37;;;;;;;1.85;1.38;;;;;;;;;;10445951;28;20123;-82
2022/11/11 02:48:59;;;;;;;3.10;1.40;;;;;;;;;;10438951;28;20041;-81
2022/11/11 02:54:20;;;;;;;1.42;1.10;;;;;;;;;;10446123;28;20041;-82
2022/11/11 02:59:44;;;;;;;1.70;1.35;;;;;;;;;;10441258;28;20041;-82
2022/11/11 03:05:07;;;;;;;1.55;1.30;;;;;;;;;;10440041;28;20044;-83
2022/11/11 03:10:29;;;;;;;2.13;1.42;;;;;;;;;;10445350;28;20049;-82
2022/11/11 03:15:53;;;;;;;2.35;1.55;;;;;;;;;;10446587;28;20041;-82
2022/11/11 03:21:15;;;;;;;2.10;1.38;;;;;;;;;;10447209;28;20045;-81
2022/11/11 03:26:58;;;;;;;2.15;1.77;;;;;;;;;;10445369;28;20135;-82
2022/11/11 03:32:21;;;;;;;1.55;1.40;;;;;;;;;;10446261;28;20049;-82
2022/11/11 03:43:24;;;;;;;2.22;1.60;;;;;;;;;;10455074;28;20566;-81
2022/11/11 03:48:48;;;;;;;2.55;1.50;;;;;;;;;;10454836;28;20045;-82
2022/11/11 03:54:10;;;;;;;1.73;1.45;;;;;;;;;;10454505;28;20041;-82
2022/11/11 03:59:32;;;;;;;2.03;1.30;;;;;;;;;;10445993;28;20033;-83
2022/11/11 04:10:36;;;;;;;4.20;1.60;;;;;;;;;;10447872;28;20037;-81
2022/11/11 04:16:07;;;;;;;3.25;1.73;;;;;;;;;;10451341;28;20132;-81
2022/11/11 04:21:43;;;;;;;1.42;1.00;;;;;;;;;;10452328;28;20033;-81
2022/11/11 04:27:07;;;;;;;1.60;1.13;;;;;;;;;;10453615;28;20037;-83
2022/11/11 04:32:37;;;;;;;1.17;1.05;;;;;;;;;;10447850;28;20120;-81
2022/11/11 04:45:26;;;;;;;2.20;1.30;;;;;;;;;;10476291;28;20045;-84
2022/11/11 04:49:19;;;;;;;2.33;1.30;;;;;;;;;;10460290;28;20064;-81
2022/11/11 05:00:20;;;;;;;2.70;1.20;;;;;;;;;;10453070;28;20037;-82
2022/11/11 05:11:26;;;;;;;1.45;1.20;;;;;;;;;;10449777;28;20041;-82
2022/11/11 05:22:35;;;;;;;1.45;1.13;;;;;;;;;;10476415;28;20522;-82
2022/11/11 05:27:58;;;;;;;1.80;1.40;;;;;;;;;;10462551;28;20045;-82
2022/11/11 05:33:21;;;;;;;1.58;1.23;;;;;;;;;;10450242;28;20437;-83
2022/11/11 05:38:49;;;;;;;2.65;1.60;;;;;;;;;;10452681;28;20494;-83
2022/11/11 05:44:32;;;;;;;2.65;1.65;;;;;;;;;;10450755;28;20057;-83
2022/11/11 05:49:54;;;;;;;1.42;1.33;;;;;;;;;;10463987;28;20044;-84
2022/11/11 05:55:16;;;;;;;1.95;1.30;;;;;;;;;;10463572;28;20663;-84
2022/11/11 06:00:40;;;;;;;2.65;1.90;;;;;;;;;;10465295;28;20036;-82
2022/11/11 06:06:02;;;;;;;3.75;2.45;;;;;;;;;;10472431;28;20060;-85
2022/11/11 06:11:26;;;;;;;4.65;2.50;;;;;;;;;;10462977;28;20037;-85
2022/11/11 06:16:53;;;;;;;2.08;1.50;;;;;;;;;;10456314;28;20064;-83
2022/11/11 06:22:54;;;;;;;2.80;2.20;;;;;;;;;;10459840;28;20051;-84
2022/11/11 06:28:00;;;;;;;3.78;2.05;;;;;;;;;;10452142;28;20041;-83
2022/11/11 06:33:24;;;;;;;3.08;2.00;;;;;;;;;;10476308;28;20433;-85
2022/11/11 06:38:46;;;;;;;3.15;1.90;;;;;;;;;;10455456;28;20499;-83
2022/11/11 06:44:09;;;;;;;1.65;1.50;;;;;;;;;;10464293;28;20108;-84
2022/11/11 06:49:33;;;;;;;2.40;1.95;;;;;;;;;;10469640;28;20537;-84
2022/11/11 06:54:55;;;;;;;2.28;2.00;;;;;;;;;;10465476;28;20037;-84
2022/11/11 07:00:18;;;;;;;4.22;2.00;;;;;;;;;;10463376;28;20029;-84
2022/11/11 07:05:42;;;;;;;5.35;2.83;;;;;;;;;;10469075;28;20049;-87
2022/11/11 07:11:05;;;;;;;6.93;3.85;;;;;;;;;;10444494;28;20124;-84
2022/11/11 07:16:32;;;;;;;4.55;3.15;;;;;;;;;;10463722;28;20068;-84
2022/11/11 07:27:59;;;;;;;3.85;2.55;;;;;;;;;;10462736;28;20045;-84
2022/11/11 07:33:21;;;;;;;3.58;2.03;;;;;;;;;;10468918;28;20041;-84
2022/11/11 07:38:47;;;;;;;2.63;2.05;;;;;;;;;;10473527;28;20044;-83
2022/11/11 07:44:08;;;;;;;2.97;2.22;;;;;;;;;;10463807;28;20080;-82
2022/11/11 07:49:31;;;;;;;3.25;1.80;;;;;;;;;;10452020;28;20129;-82
2022/11/11 07:54:54;;;;;;;4.90;2.00;;;;;;;;;;10449871;28;20057;-83
2022/11/11 08:00:18;;;;;;;4.13;3.05;;;;;;;;;;10449340;28;20112;-83
2022/11/11 08:05:40;;;;;;;2.60;1.70;;;;;;;;;;10480755;28;20044;-82
2022/11/11 08:11:04;;;;;;;3.08;2.42;;;;;;;;;;10450921;28;20041;-83
2022/11/11 08:16:26;;;;;;;4.03;1.90;;;;;;;;;;10453250;28;20048;-83
2022/11/11 08:21:54;;;;;;;2.10;1.38;;;;;;;;;;10465561;28;20041;-83
2022/11/11 08:27:18;;;;;;;2.20;1.73;;;;;;;;;;10449743;28;20037;-83
2022/11/11 08:32:40;;;;;;;2.40;1.85;;;;;;;;;;10526489;23;20044;-85
2022/11/11 08:38:03;;;;;;;4.72;2.80;;;;;;;;;;10424221;28;20414;-85
2022/11/11 08:43:26;;;;;;;3.50;2.28;;;;;;;;;;10441369;28;20538;-85
2022/11/11 08:48:50;;;;;;;8.70;3.57;;;;;;;;;;10429130;28;20049;-82
2022/11/11 08:54:12;;;;;;;5.88;3.45;;;;;;;;;;10431469;28;20057;-83
2022/11/11 08:59:35;;;;;;;5.93;3.08;;;;;;;;;;10433070;28;20045;-83
2022/11/11 09:04:58;;;;;;;2.28;1.75;;;;;;;;;;10442467;28;20053;-83
2022/11/11 09:10:20;;;;;;;3.20;2.33;;;;;;;;;;10442402;28;20045;-83
2022/11/11 09:15:43;;;;;;;2.92;1.88;;;;;;;;;;10446867;28;20541;-82
2022/11/11 09:21:06;;;;;;;6.05;2.88;;;;;;;;;;10439663;28;20041;-82
2022/11/11 09:26:28;;;;;;;4.78;3.17;;;;;;;;;;10445767;28;20120;-83
2022/11/11 09:31:51;;;;;;;3.92;2.47;;;;;;;;;;10449775;28;20120;-82
2022/11/11 09:37:13;;;;;;;3.80;2.53;;;;;;;;;;10462351;28;20032;-83
2022/11/11 09:42:39;;;;;;;4.10;2.40;;;;;;;;;;10452146;28;20518;-82
2022/11/11 09:48:13;;;;;;;3.88;2.25;;;;;;;;;;10454119;28;20041;-82
2022/11/11 09:53:41;;;;;;;3.45;2.50;;;;;;;;;;10453032;28;20037;-83
2022/11/11 09:59:07;;;;;;;5.43;3.30;;;;;;;;;;10443479;28;20449;-83
2022/11/11 10:04:49;;;;;;;4.72;3.60;;;;;;;;;;10444618;28;20053;-83
2022/11/11 10:10:23;;;;;;;1.85;1.63;;;;;;;;;;10438390;28;20136;-83
2022/11/11 10:15:58;;;;;;;3.85;1.77;;;;;;;;;;10444649;28;20045;-83
2022/11/11 10:21:31;;;;;;;6.00;2.10;;;;;;;;;;10446883;28;20212;-83
2022/11/11 10:27:06;;;;;;;4.50;3.00;;;;;;;;;;10438813;28;20053;-82
2022/11/11 10:32:32;;;;;;;2.78;1.65;;;;;;;;;;10443560;28;20041;-82
2022/11/11 10:38:06;;;;;;;2.35;1.80;;;;;;;;;;10443954;28;20037;-83
2022/11/11 10:43:29;;;;;;;2.95;1.90;;;;;;;;;;10447707;28;20033;-85
2022/11/11 10:48:57;;;;;;;5.63;3.60;;;;;;;;;;10436157;28;20052;-82
2022/11/11 10:54:24;;;;;;;7.35;2.50;;;;;;;;;;10443505;28;20057;-83
2022/11/11 10:59:50;;;;;;;4.15;2.60;;;;;;;;;;10443926;28;20053;-83
2022/11/11 11:05:16;;;;;;;5.47;2.70;;;;;;;;;;10442852;28;20546;-83
2022/11/11 11:10:45;;;;;;;3.13;1.70;;;;;;;;;;10429388;28;20041;-83
2022/11/11 11:16:12;;;;;;;4.70;2.72;;;;;;;;;;10423863;28;20526;-82
2022/11/11 11:21:58;;;;;;;1.85;1.60;;;;;;;;;;10423318;28;20037;-83
2022/11/11 11:27:27;;;;;;;7.43;2.58;;;;;;;;;;10421955;28;20041;-83
2022/11/11 11:32:58;;;;;;;3.42;1.98;;;;;;;;;;10421594;28;20033;-83
2022/11/11 11:38:20;;;;;;;2.55;1.50;;;;;;;;;;10419939;28;20037;-83
2022/11/11 11:43:44;;;;;;;3.50;2.05;;;;;;;;;;10422976;28;20037;-82
2022/11/11 11:49:18;;;;;;;2.17;1.67;;;;;;;;;;10426192;28;20041;-83
2022/11/11 11:54:58;;;;;;;2.58;1.48;;;;;;;;;;10426225;28;20089;-83
2022/11/11 12:00:43;;;;;;;1.55;1.00;;;;;;;;;;10428326;28;20124;-83
2022/11/11 12:06:11;;;;;;;2.03;1.10;;;;;;;;;;10430814;28;20057;-82
2022/11/11 12:11:38;;;;;;;2.67;1.20;;;;;;;;;;10429743;28;20033;-84
2022/11/11 12:17:10;;;;;;;1.50;1.02;;;;;;;;;;10432599;28;20092;-82
2022/11/11 12:22:52;;;;;;;3.15;0.80;;;;;;;;;;10430788;28;20033;-82
2022/11/11 12:28:25;;;;;;;1.33;0.70;;;;;;;;;;10429198;28;20723;-83
2022/11/11 12:34:10;;;;;;;1.25;0.50;;;;;;;;;;10430499;28;20037;-82
2022/11/11 12:39:46;;;;;;;1.55;0.63;;;;;;;;;;10426377;28;20646;-82
2022/11/11 12:45:15;;;;;;;2.85;0.90;;;;;;;;;;10437398;28;20523;-86
2022/11/11 12:50:47;;;;;;;2.22;0.80;;;;;;;;;;10432371;28;20562;-85
2022/11/11 12:56:18;;;;;;;1.80;0.90;;;;;;;;;;10439148;28;20053;-83
2022/11/11 13:01:55;;;;;;;1.08;0.77;;;;;;;;;;10428030;28;20132;-82
2022/11/11 13:07:50;;;;;;;2.28;0.80;;;;;;;;;;10423383;28;20037;-82
2022/11/11 13:13:28;;;;;;;2.60;1.03;;;;;;;;;;10423037;28;20426;-82
2022/11/11 13:18:55;;;;;;;4.60;1.55;;;;;;;;;;10427194;28;20044;-82
2022/11/11 13:24:22;;;;;;;2.50;1.20;;;;;;;;;;10422011;28;20119;-82
2022/11/11 13:30:03;;;;;;;1.38;0.88;;;;;;;;;;10425627;28;20460;-82
2022/11/11 13:35:41;;;;;;;1.88;0.65;;;;;;;;;;10425926;28;20044;-82
2022/11/11 13:41:06;;;;;;;1.63;0.50;;;;;;;;;;10432141;28;20057;-82
2022/11/11 13:46:36;;;;;;;1.00;0.67;;;;;;;;;;10425790;28;20119;-82
2022/11/11 13:52:00;;;;;;;2.75;0.80;;;;;;;;;;10424206;28;20288;-82
2022/11/11 13:57:27;;;;;;;1.70;0.70;;;;;;;;;;10426049;28;20040;-82
2022/11/11 14:03:27;;;;;;;1.20;0.57;;;;;;;;;;10425293;28;20033;-82
2022/11/11 14:08:54;;;;;;;1.10;0.75;;;;;;;;;;10418375;28;20040;-82
2022/11/11 14:14:55;;;;;;;2.95;0.70;;;;;;;;;;10409099;28;20503;-82
2022/11/11 14:20:39;;;;;;;0.80;0.60;;;;;;;;;;10429877;28;20041;-82
2022/11/11 14:26:25;;;;;;;1.35;0.65;;;;;;;;;;10412767;28;20056;-82
2022/11/11 14:32:01;;;;;;;1.20;0.50;;;;;;;;;;10419080;28;20041;-82
2022/11/11 14:37:36;;;;;;;1.20;0.60;;;;;;;;;;10416883;28;20045;-81
2022/11/11 14:43:00;;;;;;;1.20;0.63;;;;;;;;;;10409089;28;20124;-82
2022/11/11 14:48:57;;;;;;;3.58;1.50;;;;;;;;;;10409396;28;20044;-82
2022/11/11 14:55:01;;;;;;;3.28;1.60;;;;;;;;;;10413724;28;20041;-81
2022/11/11 15:00:27;;;;;;;4.03;1.55;;;;;;;;;;10218675;28;20067;-82
2022/11/11 15:05:53;;;;;;;2.15;0.85;;;;;;;;;;10393460;28;20464;-82
2022/11/11 15:11:27;;;;;;;3.10;1.98;;;;;;;;;;10420868;28;20135;-82
2022/11/11 15:17:09;;;;;;;3.60;1.60;;;;;;;;;;10431803;28;20806;-82
2022/11/11 15:22:44;;;;;;;2.00;1.40;;;;;;;;;;10422731;28;20033;-82
2022/11/11 15:28:23;;;;;;;1.70;0.90;;;;;;;;;;10421042;28;20041;-81
2022/11/11 15:33:51;;;;;;;;;;;;;;;;;;10423582;28;20251;-81
2022/11/11 15:39:16;;;;;;;1.02;0.68;;;;;;;;;;10437326;28;20094;-81
2022/11/11 15:44:39;;;;;;;1.63;0.98;;;;;;;;;;10448722;28;20056;-81
2022/11/11 15:50:02;;;;;;;2.38;1.10;;;;;;;;;;10444136;28;20085;-81
2022/11/11 15:55:26;;;;;;;2.55;1.40;;;;;;;;;;10427349;28;20056;-81
2022/11/11 16:00:50;;;;;;;3.00;1.70;;;;;;;;;;10448336;28;20044;-82
2022/11/11 16:06:15;;;;;;;2.25;1.00;;;;;;;;;;10437227;28;20144;-84
2022/11/11 16:11:39;;;;;;;1.60;1.10;;;;;;;;;;10424973;28;20048;-84
2022/11/11 16:17:02;;;;;;;2.10;0.85;;;;;;;;;;10435933;28;20041;-83
2022/11/11 16:22:28;;;;;;;1.40;0.93;;;;;;;;;;10441622;28;20064;-84
2022/11/11 16:27:52;;;;;;;1.33;1.10;;;;;;;;;;10455213;28;20045;-84
2022/11/11 16:33:32;;;;;;;1.60;1.20;;;;;;;;;;10444883;28;20394;-84
2022/11/11 16:39:12;;;;;;;2.42;1.40;;;;;;;;;;10457551;28;20040;-84
2022/11/11 16:44:36;;;;;;;2.05;1.40;;;;;;;;;;10438372;28;20045;-86
2022/11/11 16:50:05;;;;;;;2.92;1.80;;;;;;;;;;10426553;28;20498;-84
2022/11/11 16:55:33;;;;;;;6.90;3.80;;;;;;;;;;10453575;28;20068;-84
2022/11/11 17:01:00;;;;;;;5.22;2.30;;;;;;;;;;10438485;28;20053;-84
2022/11/11 17:06:47;;;;;;;6.13;2.42;;;;;;;;;;10436142;28;20041;-84
2022/11/11 17:12:12;;;;;;;4.60;2.85;;;;;;;;;;10433501;28;20037;-81
2022/11/11 17:17:35;;;;;;;3.85;2.50;;;;;;;;;;10429350;28;20064;-82
2022/11/11 17:22:58;;;;;;;4.32;2.60;;;;;;;;;;10428338;28;20422;-81
2022/11/11 17:28:22;;;;;;;6.95;3.15;;;;;;;;;;10428060;28;20036;-81
2022/11/11 17:33:44;;;;;;;12.63;6.82;;;;;;;;;;10435298;28;20413;-81
2022/11/11 17:39:07;;;;;;;12.68;6.55;;;;;;;;;;10430204;28;20048;-84
2022/11/11 17:44:31;;;;;;;15.23;7.32;;;;;;;;;;10440146;28;20430;-84
2022/11/11 17:49:54;;;;;;;13.07;7.38;;;;;;;;;;10431261;28;20049;-85
2022/11/11 17:55:17;;;;;;;20.77;11.63;;;;;;;;;;10427552;28;20049;-83
2022/11/11 18:00:41;;;;;;;27.30;12.75;;;;;;;;;;10427583;28;20045;-84
2022/11/11 18:06:03;;;;;;;23.67;11.57;;;;;;;;;;10425099;28;20507;-86
2022/11/11 18:11:26;;;;;;;29.25;13.10;;;;;;;;;;10434440;28;20044;-85
2022/11/11 18:16:50;;;;;;;27.40;13.02;;;;;;;;;;10435700;28;20045;-84
2022/11/11 18:22:12;;;;;;;24.70;10.75;;;;;;;;;;10438551;28;20056;-87
2022/11/11 18:27:36;;;;;;;16.92;7.90;;;;;;;;;;10445079;28;20041;-85
2022/11/11 18:32:59;;;;;;;16.65;8.77;;;;;;;;;;10439317;28;20068;-83
2022/11/11 18:38:22;;;;;;;18.65;9.15;;;;;;;;;;10430094;28;20037;-84
2022/11/11 18:43:47;;;;;;;22.60;11.20;;;;;;;;;;10424908;28;20041;-85
2022/11/11 18:49:14;;;;;;;23.27;11.15;;;;;;;;;;10418483;28;20041;-83
2022/11/11 18:54:36;;;;;;;19.05;9.77;;;;;;;;;;10432564;28;20045;-86
2022/11/11 18:59:58;;;;;;;20.95;10.80;;;;;;;;;;10421621;28;20057;-84
2022/11/11 19:05:22;;;;;;;25.10;11.80;;;;;;;;;;10440408;28;20041;-84
2022/11/11 19:10:44;;;;;;;22.45;12.55;;;;;;;;;;10422051;28;20100;-87
2022/11/11 19:16:09;;;;;;;20.67;11.43;;;;;;;;;;10426532;28;20108;-86
2022/11/11 19:21:35;;;;;;;20.45;9.88;;;;;;;;;;10425252;28;20503;-85
2022/11/11 19:26:57;;;;;;;16.77;9.10;;;;;;;;;;10416512;28;20064;-84
2022/11/11 19:32:19;;;;;;;14.10;7.68;;;;;;;;;;10423614;28;20049;-83
2022/11/11 19:37:43;;;;;;;12.68;7.45;;;;;;;;;;10427688;28;20398;-84
2022/11/11 19:43:05;;;;;;;10.10;5.10;;;;;;;;;;10417860;28;20045;-84
2022/11/11 19:48:27;;;;;;;10.75;5.43;;;;;;;;;;10431144;28;20543;-84
2022/11/11 19:53:51;;;;;;;7.15;4.63;;;;;;;;;;10424257;28;20049;-83
2022/11/11 19:59:16;;;;;;;9.15;5.50;;;;;;;;;;10407447;28;20052;-82
2022/11/11 20:04:39;;;;;;;12.63;7.45;;;;;;;;;;10419992;28;20046;-83
2022/11/11 20:10:02;;;;;;;14.57;8.02;;;;;;;;;;10412840;28;20057;-81
2022/11/11 20:15:24;;;;;;;12.35;6.75;;;;;;;;;;10424397;28;20041;-82
2022/11/11 20:20:46;;;;;;;11.93;7.20;;;;;;;;;;10425395;28;20713;-83
2022/11/11 20:26:12;;;;;;;10.13;6.30;;;;;;;;;;10436273;28;20053;-81
2022/11/11 20:31:33;;;;;;;14.02;6.80;;;;;;;;;;10431752;28;20124;-83
2022/11/11 20:36:56;;;;;;;12.82;7.75;;;;;;;;;;10434641;28;20039;-81
2022/11/11 20:42:19;;;;;;;12.23;7.35;;;;;;;;;;10431694;28;20040;-81
2022/11/11 20:47:41;;;;;;;12.43;7.10;;;;;;;;;;10431714;28;20068;-81
2022/11/11 20:53:04;;;;;;;8.73;6.00;;;;;;;;;;10424992;28;20049;-82
2022/11/11 20:58:27;;;;;;;8.73;4.75;;;;;;;;;;10428545;28;20120;-82
2022/11/11 21:03:54;;;;;;;8.93;5.50;;;;;;;;;;10433797;28;20044;-81
2022/11/11 21:09:19;;;;;;;6.97;4.32;;;;;;;;;;10438433;28;20131;-82
2022/11/11 21:14:46;;;;;;;6.53;4.10;;;;;;;;;;10438534;28;20083;-81
2022/11/11 21:20:08;;;;;;;7.90;4.57;;;;;;;;;;10439416;28;20112;-79
2022/11/11 21:25:32;;;;;;;7.90;4.55;;;;;;;;;;10436106;28;20422;-79
2022/11/11 21:31:00;;;;;;;8.48;4.60;;;;;;;;;;10433063;28;20049;-79
2022/11/11 21:42:34;;;;;;;8.57;4.13;;;;;;;;;;10430850;28;20036;-82
2022/11/11 21:47:59;;;;;;;7.70;4.55;;;;;;;;;;10436073;28;20080;-83
2022/11/11 21:53:24;;;;;;;5.53;4.20;;;;;;;;;;10436425;28;20049;-82
2022/11/11 21:58:51;;;;;;;6.90;4.32;;;;;;;;;;10434607;28;20079;-81
2022/11/11 22:04:14;;;;;;;6.13;4.40;;;;;;;;;;10441211;28;20060;-81
2022/11/11 22:09:36;;;;;;;6.18;4.57;;;;;;;;;;10431901;28;20515;-84
2022/11/11 22:14:58;;;;;;;7.55;4.72;;;;;;;;;;10425254;28;20721;-83
2022/11/11 22:20:22;;;;;;;7.90;4.95;;;;;;;;;;10432480;28;20053;-82
2022/11/11 22:25:44;;;;;;;7.55;4.63;;;;;;;;;;10431072;28;20041;-83
2022/11/11 22:31:09;;;;;;;8.85;5.53;;;;;;;;;;10426352;28;20061;-83
2022/11/11 22:36:33;;;;;;;6.95;4.53;;;;;;;;;;10431221;28;20414;-81
2022/11/11 22:41:55;;;;;;;6.97;5.05;;;;;;;;;;10424026;28;20045;-82
2022/11/11 22:47:18;;;;;;;9.00;5.53;;;;;;;;;;10431998;28;20033;-82
2022/11/11 22:52:41;;;;;;;9.95;5.90;;;;;;;;;;10431277;28;20037;-82
2022/11/11 22:58:03;;;;;;;10.77;6.30;;;;;;;;;;10424190;28;20033;-81
2022/11/11 23:03:25;;;;;;;9.95;7.00;;;;;;;;;;10430358;28;20045;-81
2022/11/11 23:08:49;;;;;;;10.65;5.85;;;;;;;;;;10426252;28;20041;-81
2022/11/11 23:14:14;;;;;;;9.65;4.97;;;;;;;;;;10420735;28;20578;-82
2022/11/11 23:19:37;;;;;;;5.80;3.50;;;;;;;;;;10442798;28;20857;-84
2022/11/11 23:25:01;;;;;;;19.95;8.90;;;;;;;;;;10421873;28;20053;-79
2022/11/11 23:30:23;;;;;;;12.18;6.55;;;;;;;;;;10428612;28;20462;-79
2022/11/11 23:35:45;;;;;;;12.52;7.05;;;;;;;;;;10428981;28;20503;-79
2022/11/11 23:41:09;;;;;;;10.15;6.20;;;;;;;;;;10416846;28;20124;-78
2022/11/11 23:46:31;;;;;;;10.07;5.22;;;;;;;;;;10430888;28;20446;-79
2022/11/11 23:51:53;;;;;;;7.45;4.18;;;;;;;;;;10433767;28;20075;-79
2022/11/11 23:57:17;;;;;;;5.63;3.28;;;;;;;;;;10438290;28;20406;-80
